Time;durP1;ratioP1;P1;durP2;ratioP2;P2;SDS_P1;SDS_P2;PMS_P1;PMS_P2;Temp;Humidity;BMP_temperature;BMP_pressure;BME280_temperature;BME280_humidity;BME280_pressure;Samples;Min_cycle;Max_cycle;Signal;HPM_P1;HPM_P2
2021/04/30 00:02:15;;;;;;;8.80;7.90;;;5.70;99.90;;;;;;5027593;28;20464;-74
2021/04/30 00:04:41;;;;;;;8.27;7.57;;;5.50;99.90;;;;;;5026954;28;20507;-74
2021/04/30 00:07:07;;;;;;;8.25;7.55;;;5.40;99.90;;;;;;5012068;28;20029;-73
2021/04/30 00:09:32;;;;;;;8.55;7.78;;;5.50;99.90;;;;;;5023525;28;20026;-74
2021/04/30 00:11:58;;;;;;;8.90;7.97;;;5.50;99.90;;;;;;5025180;28;20099;-73
2021/04/30 00:14:24;;;;;;;8.93;8.13;;;5.40;99.90;;;;;;5024534;28;20020;-73
2021/04/30 00:16:52;;;;;;;8.60;7.65;;;5.50;99.90;;;;;;5025207;28;20104;-73
2021/04/30 00:19:18;;;;;;;9.20;8.32;;;5.50;99.90;;;;;;5010023;28;20037;-74
2021/04/30 00:21:44;;;;;;;9.05;7.65;;;5.40;99.90;;;;;;5033336;28;20025;-74
2021/04/30 00:24:11;;;;;;;8.95;8.15;;;5.40;99.90;;;;;;5022947;28;20034;-73
2021/04/30 00:26:36;;;;;;;8.80;8.00;;;5.30;99.90;;;;;;5020839;28;20029;-73
2021/04/30 00:29:03;;;;;;;9.00;8.13;;;5.30;99.90;;;;;;5024096;28;20022;-74
2021/04/30 00:31:28;;;;;;;9.48;8.48;;;5.30;99.90;;;;;;5028592;28;20079;-73
2021/04/30 00:33:54;;;;;;;9.10;8.18;;;5.20;99.90;;;;;;5021204;28;20434;-74
2021/04/30 00:36:19;;;;;;;9.98;8.60;;;5.20;99.90;;;;;;5027596;28;20022;-74
2021/04/30 00:38:45;;;;;;;9.30;8.50;;;5.10;99.90;;;;;;5010309;28;20026;-74
2021/04/30 00:41:11;;;;;;;9.32;8.43;;;5.20;99.90;;;;;;5026380;28;20506;-74
2021/04/30 00:43:36;;;;;;;9.05;8.25;;;5.00;99.90;;;;;;5012445;28;20022;-72
2021/04/30 00:46:02;;;;;;;9.82;8.82;;;5.20;99.90;;;;;;5024427;28;20026;-73
2021/04/30 00:48:28;;;;;;;9.73;8.73;;;5.00;99.90;;;;;;5006287;28;20022;-72
2021/04/30 00:50:53;;;;;;;9.82;8.93;;;4.80;99.90;;;;;;5024342;28;20426;-72
2021/04/30 00:53:19;;;;;;;10.52;9.23;;;4.70;99.90;;;;;;5024144;28;20116;-72
2021/04/30 00:55:44;;;;;;;11.20;10.20;;;4.80;99.90;;;;;;5024322;28;20022;-72
2021/04/30 00:58:10;;;;;;;10.90;9.90;;;4.70;99.90;;;;;;5009772;28;20395;-72
2021/04/30 01:00:37;;;;;;;11.38;10.30;;;4.70;99.90;;;;;;5018903;28;20502;-73
2021/04/30 01:03:07;;;;;;;11.88;10.43;;;4.50;99.90;;;;;;5012478;28;20444;-72
2021/04/30 01:05:33;;;;;;;12.00;9.38;;;4.00;99.90;;;;;;5032152;28;20471;-73
2021/04/30 01:07:58;;;;;;;12.02;9.95;;;3.90;99.90;;;;;;4995992;28;20033;-73
2021/04/30 01:10:24;;;;;;;11.02;10.02;;;4.10;99.90;;;;;;5012494;28;20036;-73
2021/04/30 01:12:50;;;;;;;10.98;9.93;;;4.20;99.90;;;;;;5031407;28;20052;-73
2021/04/30 01:15:17;;;;;;;11.32;10.27;;;4.30;99.90;;;;;;5032199;28;20021;-72
2021/04/30 01:17:43;;;;;;;11.77;10.68;;;4.00;99.90;;;;;;5032146;28;20024;-72
2021/04/30 01:20:11;;;;;;;12.27;11.07;;;4.30;99.90;;;;;;5015400;28;20030;-73
2021/04/30 01:22:38;;;;;;;16.17;12.55;;;3.90;99.90;;;;;;5012373;28;20026;-73
2021/04/30 01:25:07;;;;;;;12.82;11.55;;;3.50;99.90;;;;;;5004152;28;20026;-74
2021/04/30 01:27:32;;;;;;;12.93;11.73;;;3.00;99.90;;;;;;4994756;28;20033;-74
2021/04/30 01:29:58;;;;;;;13.98;12.40;;;3.10;99.90;;;;;;5025423;28;20029;-74
2021/04/30 01:32:24;;;;;;;13.55;12.25;;;2.90;99.90;;;;;;5001284;28;20044;-75
2021/04/30 01:34:50;;;;;;;12.95;11.75;;;3.30;99.90;;;;;;5031875;28;20017;-75
2021/04/30 01:37:16;;;;;;;12.43;11.32;;;3.40;99.90;;;;;;5025554;28;20048;-76
2021/04/30 01:39:41;;;;;;;13.15;11.85;;;3.50;99.90;;;;;;5012248;28;20032;-77
2021/04/30 01:42:08;;;;;;;12.07;10.98;;;3.60;99.90;;;;;;5012565;28;20029;-76
2021/04/30 01:44:33;;;;;;;12.68;11.07;;;3.70;99.90;;;;;;5012046;28;20156;-76
2021/04/30 01:47:00;;;;;;;12.55;11.35;;;3.70;99.90;;;;;;4994812;28;20057;-76
2021/04/30 01:49:26;;;;;;;12.35;11.25;;;3.70;99.90;;;;;;5004340;28;20519;-73
2021/04/30 01:51:52;;;;;;;12.18;10.63;;;3.60;99.90;;;;;;5031688;28;20049;-73
2021/04/30 01:54:18;;;;;;;12.38;11.07;;;3.80;99.90;;;;;;5031719;28;20028;-75
2021/04/30 01:56:43;;;;;;;11.73;10.63;;;4.00;99.90;;;;;;5014230;28;20104;-75
2021/04/30 01:59:09;;;;;;;12.43;11.32;;;4.20;99.90;;;;;;5031674;28;20033;-75
2021/04/30 02:01:34;;;;;;;12.60;11.40;;;4.40;99.90;;;;;;5013779;28;20035;-75
2021/04/30 02:04:00;;;;;;;12.82;11.63;;;4.40;99.90;;;;;;5031438;28;20105;-75
2021/04/30 02:06:26;;;;;;;12.77;11.65;;;4.30;99.90;;;;;;5012606;28;20026;-75
2021/04/30 02:08:54;;;;;;;13.57;12.38;;;4.30;99.90;;;;;;4994272;28;20106;-75
2021/04/30 02:11:20;;;;;;;13.75;12.27;;;4.30;99.90;;;;;;5011738;28;20447;-75
2021/04/30 02:13:45;;;;;;;14.48;12.98;;;4.00;99.90;;;;;;4996880;28;20026;-75
2021/04/30 02:16:11;;;;;;;14.93;12.77;;;3.80;99.90;;;;;;5021421;28;20076;-74
2021/04/30 02:18:36;;;;;;;15.48;14.05;;;3.80;99.90;;;;;;5023431;28;20030;-74
2021/04/30 02:21:02;;;;;;;14.80;13.30;;;3.60;99.90;;;;;;5015765;28;20584;-74
2021/04/30 02:23:27;;;;;;;16.30;14.80;;;3.50;99.90;;;;;;5007525;28;20528;-72
2021/04/30 02:25:53;;;;;;;14.98;13.57;;;3.30;99.90;;;;;;5002442;28;20029;-73
2021/04/30 02:28:18;;;;;;;16.92;15.32;;;3.40;99.90;;;;;;5015692;28;20033;-72
2021/04/30 02:30:44;;;;;;;16.52;14.82;;;3.30;99.90;;;;;;4997931;28;20026;-71
2021/04/30 02:33:11;;;;;;;15.55;14.02;;;3.10;99.90;;;;;;5015640;28;20058;-71
2021/04/30 02:35:37;;;;;;;15.93;14.43;;;3.10;99.90;;;;;;5015455;28;20022;-72
2021/04/30 02:38:05;;;;;;;14.30;13.00;;;3.20;99.90;;;;;;5015628;28;20093;-72
2021/04/30 02:40:32;;;;;;;13.80;12.50;;;3.30;99.90;;;;;;4991215;28;20026;-72
2021/04/30 02:43:00;;;;;;;14.77;13.27;;;3.20;99.90;;;;;;5021929;28;20038;-71
2021/04/30 02:45:26;;;;;;;15.65;14.15;;;3.50;99.90;;;;;;5015292;28;20157;-72
2021/04/30 02:47:53;;;;;;;16.02;14.43;;;3.60;99.90;;;;;;4997623;28;20109;-72
2021/04/30 02:50:22;;;;;;;16.35;14.63;;;3.50;99.90;;;;;;5015274;28;20041;-73
2021/04/30 02:52:48;;;;;;;15.93;14.45;;;3.50;99.90;;;;;;5028480;28;20483;-72
2021/04/30 02:55:20;;;;;;;18.33;16.58;;;3.60;99.90;;;;;;5015036;28;20435;-72
2021/04/30 02:57:49;;;;;;;17.35;15.65;;;3.30;99.90;;;;;;4997569;28;20029;-72
2021/04/30 03:00:14;;;;;;;16.48;14.93;;;3.30;99.90;;;;;;5015097;28;20026;-72
2021/04/30 03:02:41;;;;;;;18.77;16.90;;;3.30;99.90;;;;;;4997326;28;20030;-72
2021/04/30 03:05:07;;;;;;;18.77;16.98;;;3.40;99.90;;;;;;5015179;28;20101;-72
2021/04/30 03:07:33;;;;;;;19.95;17.85;;;3.20;99.90;;;;;;5014968;28;20038;-73
2021/04/30 03:09:58;;;;;;;17.02;15.35;;;3.20;99.90;;;;;;5023371;28;20497;-72
2021/04/30 03:12:24;;;;;;;16.60;15.00;;;3.10;99.90;;;;;;5034461;28;20032;-73
2021/04/30 03:14:49;;;;;;;20.35;17.67;;;3.20;99.90;;;;;;5026030;28;20393;-73
2021/04/30 03:17:15;;;;;;;18.88;17.08;;;3.30;99.90;;;;;;5010670;28;20100;-73
2021/04/30 03:19:40;;;;;;;18.88;16.98;;;3.10;99.90;;;;;;5021384;28;20042;-73
2021/04/30 03:22:06;;;;;;;17.77;16.08;;;3.20;99.90;;;;;;5010983;28;20025;-73
2021/04/30 03:24:31;;;;;;;17.73;15.80;;;3.00;99.90;;;;;;5007421;28;20394;-74
2021/04/30 03:26:57;;;;;;;17.88;16.05;;;3.10;99.90;;;;;;4996919;28;20483;-75
2021/04/30 03:29:22;;;;;;;18.65;16.83;;;3.20;99.90;;;;;;4996902;28;20026;-74
2021/04/30 03:31:48;;;;;;;20.63;18.42;;;3.10;99.90;;;;;;5016143;28;20399;-75
2021/04/30 03:34:13;;;;;;;21.58;19.27;;;3.20;99.90;;;;;;5034156;28;20479;-76
2021/04/30 03:36:39;;;;;;;22.30;20.13;;;2.90;99.90;;;;;;5034262;28;20487;-75
2021/04/30 03:39:06;;;;;;;23.67;21.30;;;2.70;99.90;;;;;;5034298;28;20029;-75
2021/04/30 03:41:32;;;;;;;24.50;22.10;;;2.20;99.90;;;;;;5016252;28;20345;-74
2021/04/30 03:43:57;;;;;;;24.35;21.90;;;2.20;99.90;;;;;;5033866;28;20100;-73
2021/04/30 03:46:23;;;;;;;24.00;21.48;;;2.20;99.90;;;;;;5016315;28;20037;-73
2021/04/30 03:48:48;;;;;;;24.48;22.08;;;2.20;99.90;;;;;;5016269;28;20447;-74
2021/04/30 03:51:14;;;;;;;22.73;20.52;;;1.90;99.90;;;;;;5033970;28;20029;-75
2021/04/30 03:53:39;;;;;;;22.23;20.13;;;2.00;99.90;;;;;;5033827;28;20018;-74
2021/04/30 03:56:05;;;;;;;20.45;18.45;;;2.20;99.90;;;;;;5014652;28;20079;-74
2021/04/30 03:58:30;;;;;;;23.40;21.10;;;2.30;99.90;;;;;;5022230;28;20025;-73
2021/04/30 04:00:56;;;;;;;23.23;20.98;;;2.40;99.90;;;;;;5001460;28;20480;-73
2021/04/30 04:03:22;;;;;;;22.50;20.27;;;2.40;99.90;;;;;;5014059;28;20106;-74
2021/04/30 04:05:47;;;;;;;25.17;22.67;;;2.50;99.90;;;;;;5027012;28;20057;-75
2021/04/30 04:08:13;;;;;;;25.15;22.55;;;2.50;99.90;;;;;;5022322;28;20026;-74
2021/04/30 04:10:39;;;;;;;23.23;21.02;;;2.60;99.90;;;;;;5000865;28;20037;-76
2021/04/30 04:13:20;;;;;;;23.85;21.35;;;2.70;99.90;;;;;;5022067;28;20075;-75
2021/04/30 04:15:47;;;;;;;25.88;23.27;;;2.80;99.90;;;;;;5033223;28;20026;-74
2021/04/30 04:18:13;;;;;;;25.48;23.05;;;2.70;99.90;;;;;;5005627;28;20487;-76
2021/04/30 04:20:39;;;;;;;25.55;23.05;;;2.00;99.90;;;;;;4996310;28;20025;-75
2021/04/30 04:23:07;;;;;;;23.80;21.55;;;1.80;99.90;;;;;;5013735;28;20099;-75
2021/04/30 04:25:32;;;;;;;26.10;23.40;;;1.80;99.90;;;;;;5026627;28;20029;-75
2021/04/30 04:27:58;;;;;;;22.95;20.65;;;1.70;99.90;;;;;;5013607;28;20030;-73
2021/04/30 04:30:25;;;;;;;23.45;21.13;;;2.00;99.90;;;;;;5016974;28;20049;-75
2021/04/30 04:32:51;;;;;;;24.02;21.48;;;2.30;99.90;;;;;;5033282;28;20027;-75
2021/04/30 04:35:17;;;;;;;22.92;20.63;;;2.50;99.90;;;;;;5032150;28;20059;-73
2021/04/30 04:37:43;;;;;;;22.33;20.23;;;2.70;99.90;;;;;;5033139;28;20049;-73
2021/04/30 04:40:09;;;;;;;22.25;20.15;;;2.90;99.90;;;;;;5029551;28;20097;-72
2021/04/30 04:42:35;;;;;;;22.98;20.73;;;2.90;99.90;;;;;;5012874;28;20029;-71
2021/04/30 04:45:00;;;;;;;21.35;19.23;;;3.00;99.90;;;;;;5001767;28;20391;-72
2021/04/30 04:47:26;;;;;;;23.30;20.75;;;3.00;99.90;;;;;;5005302;28;20496;-72
2021/04/30 04:49:51;;;;;;;20.73;18.67;;;3.20;99.90;;;;;;4998986;28;20483;-73
2021/04/30 04:52:16;;;;;;;21.15;18.98;;;3.20;99.90;;;;;;5022562;28;20037;-73
2021/04/30 04:54:42;;;;;;;20.70;18.63;;;3.20;99.90;;;;;;5029767;28;20025;-76
2021/04/30 04:57:08;;;;;;;21.40;19.13;;;3.20;99.90;;;;;;5032900;28;20590;-75
2021/04/30 04:59:33;;;;;;;23.38;21.08;;;3.40;99.90;;;;;;5032598;28;20056;-71
2021/04/30 05:01:59;;;;;;;24.55;22.05;;;3.40;99.90;;;;;;5032636;28;20029;-72
2021/04/30 05:04:24;;;;;;;24.00;21.65;;;3.10;99.90;;;;;;5032484;28;20017;-71
2021/04/30 05:06:50;;;;;;;24.98;22.38;;;3.00;99.90;;;;;;5005010;28;20036;-73
2021/04/30 05:09:15;;;;;;;24.27;21.88;;;2.90;99.90;;;;;;5025921;28;20515;-74
2021/04/30 05:11:41;;;;;;;25.63;22.02;;;3.40;99.90;;;;;;4995329;28;20040;-75
2021/04/30 05:14:06;;;;;;;22.92;20.55;;;3.40;99.90;;;;;;4994878;28;20049;-74
2021/04/30 05:16:32;;;;;;;22.73;20.42;;;3.40;99.90;;;;;;5022473;28;20026;-72
2021/04/30 05:18:57;;;;;;;22.45;20.20;;;3.90;99.90;;;;;;5005767;28;20131;-72
2021/04/30 05:21:23;;;;;;;21.98;19.77;;;4.40;99.90;;;;;;5005465;28;20021;-72
2021/04/30 05:23:49;;;;;;;23.52;20.98;;;4.30;99.90;;;;;;5008116;28;20061;-72
2021/04/30 05:26:15;;;;;;;22.90;20.60;;;4.30;99.90;;;;;;5012528;28;20025;-74
2021/04/30 05:28:41;;;;;;;22.05;19.80;;;4.60;99.90;;;;;;5012322;28;20079;-72
2021/04/30 05:31:06;;;;;;;21.88;19.58;;;4.60;99.90;;;;;;5012853;28;20033;-73
2021/04/30 05:33:32;;;;;;;22.67;20.38;;;4.70;99.90;;;;;;5012334;28;20026;-73
2021/04/30 05:35:57;;;;;;;21.67;19.17;;;4.70;99.90;;;;;;4994839;28;20502;-73
2021/04/30 05:38:23;;;;;;;20.88;18.77;;;4.90;99.90;;;;;;5010410;28;20021;-73
2021/04/30 05:40:48;;;;;;;22.17;19.90;;;5.20;99.90;;;;;;5014576;28;20040;-73
2021/04/30 05:43:15;;;;;;;20.60;18.50;;;5.20;99.90;;;;;;5017046;28;20109;-73
2021/04/30 05:45:43;;;;;;;19.13;17.27;;;5.30;99.90;;;;;;5012186;28;20024;-72
2021/04/30 05:48:09;;;;;;;21.33;19.20;;;5.30;99.90;;;;;;5010777;28;20616;-75
2021/04/30 05:50:35;;;;;;;19.52;17.50;;;5.50;99.90;;;;;;5014172;28;20033;-74
2021/04/30 05:53:00;;;;;;;19.40;17.50;;;5.40;99.90;;;;;;5014350;28;20033;-73
2021/04/30 05:55:26;;;;;;;20.65;18.45;;;5.60;99.90;;;;;;5022264;28;20369;-73
2021/04/30 05:57:51;;;;;;;19.25;17.33;;;5.80;99.90;;;;;;5025317;28;20456;-73
2021/04/30 06:00:17;;;;;;;21.80;19.48;;;5.80;99.90;;;;;;5012076;28;20097;-73
2021/04/30 06:02:43;;;;;;;19.52;17.52;;;5.80;99.90;;;;;;5012593;28;20037;-73
2021/04/30 06:05:09;;;;;;;20.95;18.77;;;6.00;99.90;;;;;;5020965;28;20399;-74
2021/04/30 06:07:34;;;;;;;21.50;18.60;;;6.10;99.90;;;;;;5031920;28;20663;-75
2021/04/30 06:10:02;;;;;;;23.25;20.95;;;6.30;99.90;;;;;;5031465;28;20031;-74
2021/04/30 06:12:28;;;;;;;21.55;19.23;;;6.40;99.90;;;;;;5012150;28;20025;-74
2021/04/30 06:14:53;;;;;;;23.00;20.27;;;6.50;99.90;;;;;;5029893;28;20467;-74
2021/04/30 06:17:20;;;;;;;24.70;21.67;;;6.40;99.90;;;;;;5029723;28;20506;-73
2021/04/30 06:19:46;;;;;;;24.00;20.98;;;6.40;99.90;;;;;;5020378;28;20030;-73
2021/04/30 06:22:11;;;;;;;24.40;21.90;;;6.20;99.90;;;;;;5013475;28;20540;-74
2021/04/30 06:24:37;;;;;;;23.70;21.30;;;6.30;99.90;;;;;;5011957;28;20025;-74
2021/04/30 06:27:03;;;;;;;24.88;22.00;;;6.20;99.90;;;;;;5002148;28;20072;-71
2021/04/30 06:29:28;;;;;;;24.20;21.80;;;6.30;99.90;;;;;;4999811;28;20041;-71
2021/04/30 06:31:56;;;;;;;22.95;20.55;;;6.40;99.90;;;;;;5013547;28;20030;-70
2021/04/30 06:34:22;;;;;;;24.38;21.77;;;6.50;99.90;;;;;;5011687;28;20076;-70
2021/04/30 06:36:49;;;;;;;25.17;22.50;;;6.50;99.90;;;;;;5016556;28;20027;-70
2021/04/30 06:39:14;;;;;;;25.92;22.92;;;6.50;99.90;;;;;;5011430;28;20093;-70
2021/04/30 06:41:40;;;;;;;23.95;21.42;;;6.60;99.90;;;;;;5012249;28;20034;-73
2021/04/30 06:44:05;;;;;;;25.83;23.10;;;6.70;99.90;;;;;;5009817;28;20036;-73
2021/04/30 06:46:31;;;;;;;27.27;22.98;;;6.50;99.90;;;;;;5021781;28;20037;-73
2021/04/30 06:48:56;;;;;;;26.50;23.60;;;6.60;99.90;;;;;;5016573;28;20040;-73
2021/04/30 06:51:22;;;;;;;26.27;22.95;;;6.70;99.90;;;;;;5014833;28;20152;-73
2021/04/30 06:53:48;;;;;;;26.38;23.50;;;6.90;99.90;;;;;;5016482;28;20491;-72
2021/04/30 06:56:14;;;;;;;25.98;22.50;;;7.00;99.90;;;;;;5015532;28;20033;-72
2021/04/30 06:58:40;;;;;;;23.88;21.25;;;6.90;99.90;;;;;;5015765;28;20041;-73
2021/04/30 07:01:06;;;;;;;24.30;21.65;;;7.10;99.90;;;;;;5000970;28;20502;-74
2021/04/30 07:03:32;;;;;;;28.48;22.92;;;7.20;99.90;;;;;;5015169;28;20057;-73
2021/04/30 07:05:58;;;;;;;27.83;23.10;;;7.10;99.90;;;;;;5002540;28;20124;-73
2021/04/30 07:08:23;;;;;;;24.35;21.80;;;7.50;99.90;;;;;;5016225;28;20018;-73
2021/04/30 07:10:49;;;;;;;26.08;22.70;;;7.60;99.90;;;;;;5015773;28;20033;-74
2021/04/30 07:13:15;;;;;;;25.75;23.05;;;7.40;99.90;;;;;;5016845;28;20030;-74
2021/04/30 07:15:40;;;;;;;27.83;21.98;;;7.30;99.90;;;;;;5002022;28;20017;-73
2021/04/30 07:18:06;;;;;;;24.42;21.77;;;7.30;99.90;;;;;;4998174;28;20057;-73
2021/04/30 07:20:34;;;;;;;25.50;22.88;;;7.30;99.90;;;;;;5015767;28;20092;-73
2021/04/30 07:23:01;;;;;;;25.08;22.38;;;7.30;99.90;;;;;;5022500;28;20073;-73
2021/04/30 07:25:26;;;;;;;25.08;22.55;;;7.30;99.90;;;;;;5016553;28;20117;-73
2021/04/30 07:27:52;;;;;;;24.42;21.60;;;7.30;99.90;;;;;;5023102;28;20452;-73
2021/04/30 07:30:18;;;;;;;26.27;21.67;;;7.40;99.90;;;;;;5015729;28;20124;-73
2021/04/30 07:32:44;;;;;;;25.20;22.60;;;7.20;99.90;;;;;;4997153;28;20026;-73
2021/04/30 07:35:10;;;;;;;25.33;21.52;;;7.20;99.90;;;;;;5015950;28;20117;-73
2021/04/30 07:37:37;;;;;;;24.95;22.25;;;7.30;99.90;;;;;;5001415;28;20049;-75
2021/04/30 07:40:12;;;;;;;24.20;20.75;;;7.40;99.90;;;;;;5004609;28;20076;-69
2021/04/30 07:42:38;;;;;;;22.77;20.37;;;7.70;99.90;;;;;;5015065;28;20034;-75
2021/04/30 07:45:04;;;;;;;21.88;19.48;;;8.00;99.90;;;;;;5023423;28;20081;-74
2021/04/30 07:47:30;;;;;;;24.27;20.55;;;8.20;99.90;;;;;;5005867;28;20038;-75
2021/04/30 07:49:57;;;;;;;25.77;19.80;;;8.30;99.90;;;;;;5019169;28;20365;-75
2021/04/30 07:52:23;;;;;;;24.38;20.00;;;8.10;99.90;;;;;;5016323;28;20018;-73
2021/04/30 07:54:49;;;;;;;23.70;19.48;;;8.00;99.90;;;;;;5018584;28;20033;-73
2021/04/30 07:57:15;;;;;;;21.58;19.30;;;8.10;99.90;;;;;;5020496;28;20032;-73
2021/04/30 07:59:40;;;;;;;22.30;19.83;;;8.40;99.90;;;;;;5001703;28;20026;-73
2021/04/30 08:02:06;;;;;;;21.85;19.40;;;8.70;99.90;;;;;;5017643;28;20030;-73
2021/04/30 08:04:31;;;;;;;21.38;18.15;;;8.70;99.90;;;;;;5027425;28;20471;-73
2021/04/30 08:06:57;;;;;;;20.40;16.55;;;8.80;99.90;;;;;;5007851;28;20491;-73
2021/04/30 08:09:23;;;;;;;19.73;16.70;;;8.80;99.90;;;;;;5000568;28;20026;-73
2021/04/30 08:11:48;;;;;;;21.92;17.85;;;8.70;99.90;;;;;;5008571;28;20029;-73
2021/04/30 08:14:14;;;;;;;18.55;16.65;;;8.50;99.90;;;;;;5020200;28;20065;-73
2021/04/30 08:16:39;;;;;;;18.45;15.98;;;8.50;99.90;;;;;;5012865;28;20029;-73
2021/04/30 08:19:06;;;;;;;19.15;14.70;;;8.50;99.90;;;;;;5003871;28;20395;-73
2021/04/30 08:21:33;;;;;;;18.25;14.95;;;8.60;99.90;;;;;;5017576;28;20033;-73
2021/04/30 08:23:58;;;;;;;18.40;15.27;;;8.50;99.90;;;;;;5022044;28;20432;-73
2021/04/30 08:26:24;;;;;;;15.85;14.23;;;8.60;99.90;;;;;;4999472;28;20056;-73
2021/04/30 08:28:50;;;;;;;17.52;14.48;;;8.70;99.90;;;;;;5028856;28;20107;-73
2021/04/30 08:31:16;;;;;;;18.77;15.55;;;8.90;99.90;;;;;;5022408;28;20503;-73
2021/04/30 08:33:42;;;;;;;17.55;15.43;;;9.00;99.90;;;;;;5020834;28;20093;-73
2021/04/30 08:36:08;;;;;;;14.63;12.55;;;9.10;99.90;;;;;;5022371;28;20488;-73
2021/04/30 08:38:34;;;;;;;15.60;13.68;;;9.20;99.90;;;;;;5019708;28;20022;-73
2021/04/30 08:41:00;;;;;;;14.35;12.75;;;9.00;99.90;;;;;;5011605;28;20030;-72
2021/04/30 08:43:26;;;;;;;16.13;14.52;;;9.10;99.90;;;;;;5015500;28;20115;-73
2021/04/30 08:45:54;;;;;;;15.30;13.77;;;9.10;99.90;;;;;;5026009;28;20025;-74
2021/04/30 08:48:24;;;;;;;15.18;13.57;;;9.10;99.90;;;;;;5017174;28;20152;-74
2021/04/30 08:50:51;;;;;;;15.80;13.75;;;9.00;99.90;;;;;;5013646;28;20468;-74
2021/04/30 08:53:17;;;;;;;18.88;15.68;;;9.60;99.90;;;;;;5016783;28;20357;-74
2021/04/30 08:55:43;;;;;;;16.50;14.75;;;9.70;99.90;;;;;;5016471;28;20021;-74
2021/04/30 08:58:10;;;;;;;16.48;14.55;;;9.70;99.90;;;;;;5022253;28;20145;-73
2021/04/30 09:00:36;;;;;;;15.77;14.18;;;9.70;99.90;;;;;;5025199;28;20022;-73
2021/04/30 09:03:01;;;;;;;15.40;13.75;;;9.90;99.90;;;;;;5006475;28;20052;-73
2021/04/30 09:05:29;;;;;;;15.90;14.27;;;10.00;99.90;;;;;;5006502;28;20029;-72
2021/04/30 09:07:56;;;;;;;16.17;14.48;;;10.00;99.90;;;;;;5022631;28;20097;-73
2021/04/30 09:10:22;;;;;;;15.88;13.60;;;10.10;99.90;;;;;;5000514;28;20021;-73
2021/04/30 09:13:09;;;;;;;14.10;12.55;;;10.40;99.90;;;;;;5003819;28;20092;-73
2021/04/30 09:15:36;;;;;;;14.30;12.82;;;10.60;99.90;;;;;;5028797;28;20417;-72
2021/04/30 09:18:18;;;;;;;16.88;14.30;;;10.30;99.90;;;;;;5021356;28;20017;-73
2021/04/30 09:20:44;;;;;;;15.25;13.75;;;10.50;99.90;;;;;;5021083;28;20492;-73
2021/04/30 09:23:37;;;;;;;16.65;13.55;;;10.50;99.90;;;;;;5013360;28;20040;-72
2021/04/30 09:26:24;;;;;;;14.50;12.88;;;10.50;99.90;;;;;;5020239;28;20416;-71
2021/04/30 09:29:09;;;;;;;;;;;10.90;99.90;;;;;;5014916;28;20042;-71
2021/04/30 09:31:45;;;;;;;14.25;12.68;;;10.70;99.90;;;;;;5018113;28;20708;-72
2021/04/30 09:34:15;;;;;;;15.32;13.75;;;11.30;99.90;;;;;;5017648;28;20101;-72
2021/04/30 09:37:11;;;;;;;15.52;13.35;;;11.40;99.90;;;;;;5017545;28;20042;-72
2021/04/30 09:39:58;;;;;;;15.48;13.80;;;11.50;99.90;;;;;;4995672;28;20030;-71
2021/04/30 09:42:32;;;;;;;15.40;13.13;;;11.70;99.90;;;;;;4994263;28;20025;-71
2021/04/30 09:45:00;;;;;;;15.35;12.57;;;11.80;99.90;;;;;;5029775;28;20022;-72
2021/04/30 09:47:28;;;;;;;13.98;11.98;;;12.00;99.90;;;;;;5005953;28;20053;-72
2021/04/30 09:50:23;;;;;;;13.63;11.88;;;12.00;99.90;;;;;;5019106;28;20028;-72
2021/04/30 09:52:54;;;;;;;12.55;11.27;;;12.10;99.90;;;;;;4999990;28;20571;-71
2021/04/30 09:55:19;;;;;;;12.70;11.32;;;11.90;99.90;;;;;;4994654;28;20084;-72
2021/04/30 09:57:45;;;;;;;13.10;11.48;;;12.30;99.90;;;;;;4998944;28;20025;-73
2021/04/30 10:00:14;;;;;;;13.52;11.13;;;12.40;99.90;;;;;;5012138;28;20060;-68
2021/04/30 10:02:40;;;;;;;12.02;10.82;;;12.80;99.90;;;;;;5013796;28;20038;-71
2021/04/30 10:05:13;;;;;;;10.38;9.02;;;12.60;99.90;;;;;;5022611;28;20026;-72
2021/04/30 10:07:40;;;;;;;14.30;8.48;;;12.50;99.90;;;;;;5012340;28;20034;-73
2021/04/30 10:10:16;;;;;;;13.50;11.63;;;12.60;99.90;;;;;;5001330;28;20060;-71
2021/04/30 10:12:44;;;;;;;14.38;12.88;;;12.50;99.90;;;;;;5014324;28;20104;-71
2021/04/30 10:15:12;;;;;;;12.15;10.85;;;12.70;99.90;;;;;;5011711;28;20026;-71
2021/04/30 10:17:39;;;;;;;14.55;12.13;;;12.80;99.90;;;;;;5015562;28;20057;-73
2021/04/30 10:20:06;;;;;;;15.05;11.88;;;12.60;99.90;;;;;;5018618;28;20160;-72
2021/04/30 10:22:35;;;;;;;12.82;11.15;;;12.30;99.90;;;;;;5018980;28;20037;-72
2021/04/30 10:25:06;;;;;;;17.25;12.82;;;12.30;99.90;;;;;;5013446;28;20022;-72
2021/04/30 10:27:37;;;;;;;15.52;12.57;;;12.00;99.90;;;;;;5016409;28;20049;-72
2021/04/30 10:30:42;;;;;;;16.20;12.75;;;12.00;99.90;;;;;;5013178;28;20018;-72
2021/04/30 10:33:32;;;;;;;14.77;13.18;;;12.30;99.90;;;;;;4977123;28;20493;-71
2021/04/30 10:36:07;;;;;;;12.23;10.95;;;12.80;99.90;;;;;;5014258;28;20025;-71
2021/04/30 10:38:39;;;;;;;15.90;11.43;;;12.90;99.90;;;;;;5023944;28;20076;-73
2021/04/30 10:41:13;;;;;;;10.75;9.70;;;12.50;99.90;;;;;;5023271;28;20114;-71
2021/04/30 10:43:39;;;;;;;12.38;10.38;;;12.80;99.90;;;;;;4998363;28;20109;-71
2021/04/30 10:46:23;;;;;;;9.32;7.90;;;13.00;99.90;;;;;;5022836;28;20021;-74
2021/04/30 10:49:07;;;;;;;7.50;6.65;;;12.90;99.90;;;;;;5001247;28;20036;-73
2021/04/30 10:51:34;;;;;;;6.75;6.10;;;12.80;99.90;;;;;;5007908;28;20022;-73
2021/04/30 10:54:23;;;;;;;6.57;5.93;;;12.60;99.90;;;;;;5024280;28;20022;-72
2021/04/30 10:57:05;;;;;;;7.75;6.53;;;13.20;99.90;;;;;;5016512;28;20026;-73
2021/04/30 10:59:38;;;;;;;11.65;10.45;;;13.30;99.90;;;;;;5016316;28;20095;-75
2021/04/30 11:02:28;;;;;;;11.10;9.98;;;13.10;99.90;;;;;;5020325;28;20113;-75
2021/04/30 11:05:03;;;;;;;9.60;8.70;;;12.90;99.90;;;;;;5002376;28;20037;-74
2021/04/30 11:07:32;;;;;;;8.90;8.10;;;12.80;99.90;;;;;;5020083;28;20036;-74
2021/04/30 11:09:57;;;;;;;8.93;8.05;;;12.40;99.90;;;;;;5018333;28;20032;-71
2021/04/30 11:12:27;;;;;;;12.48;11.18;;;12.30;99.90;;;;;;5019530;28;20030;-73
2021/04/30 11:15:04;;;;;;;12.60;11.30;;;12.20;99.90;;;;;;5016092;28;20507;-73
2021/04/30 11:17:45;;;;;;;13.30;11.30;;;12.10;99.90;;;;;;5026385;28;20022;-73
2021/04/30 11:20:13;;;;;;;13.85;11.82;;;12.10;99.90;;;;;;5020748;28;20026;-73
2021/04/30 11:22:38;;;;;;;12.77;10.70;;;12.00;99.90;;;;;;5020446;28;20491;-73
2021/04/30 11:25:13;;;;;;;11.57;10.38;;;12.20;99.90;;;;;;5020419;28;20034;-73
2021/04/30 11:27:39;;;;;;;11.85;9.40;;;12.20;99.90;;;;;;5020516;28;20495;-73
2021/04/30 11:30:21;;;;;;;10.75;8.90;;;12.10;99.90;;;;;;5019017;28;20040;-73
2021/04/30 11:32:52;;;;;;;11.40;9.13;;;11.90;99.90;;;;;;5019509;28;20171;-73
2021/04/30 11:35:17;;;;;;;10.10;9.13;;;11.90;99.90;;;;;;5007443;28;20108;-73
2021/04/30 11:37:45;;;;;;;12.57;11.25;;;11.70;99.90;;;;;;5024226;28;20105;-73
2021/04/30 11:40:13;;;;;;;11.88;10.60;;;11.70;99.90;;;;;;5026975;28;20057;-73
2021/04/30 11:42:38;;;;;;;10.50;9.40;;;11.80;99.90;;;;;;5015360;28;20022;-73
2021/04/30 11:45:05;;;;;;;12.27;9.85;;;11.90;99.90;;;;;;5017280;28;20502;-74
2021/04/30 11:47:33;;;;;;;13.70;10.55;;;11.70;99.90;;;;;;5022685;28;20511;-73
2021/04/30 11:49:59;;;;;;;10.60;9.50;;;11.60;99.90;;;;;;5015689;28;20025;-73
2021/04/30 11:52:42;;;;;;;12.10;9.65;;;11.70;99.90;;;;;;4999782;28;20029;-73
2021/04/30 11:55:09;;;;;;;11.38;9.20;;;11.60;99.90;;;;;;5012863;28;20369;-73
2021/04/30 11:57:35;;;;;;;11.13;8.48;;;11.70;99.90;;;;;;5020043;28;20030;-74
2021/04/30 12:00:01;;;;;;;9.85;8.20;;;11.50;99.90;;;;;;5016532;28;20491;-75
2021/04/30 12:02:29;;;;;;;9.00;7.93;;;11.40;99.90;;;;;;5015073;28;20025;-74
2021/04/30 12:04:55;;;;;;;9.05;7.93;;;11.40;99.90;;;;;;5014572;28;20026;-75
2021/04/30 12:07:25;;;;;;;8.70;7.80;;;11.40;99.90;;;;;;5018854;28;20026;-73
2021/04/30 12:09:53;;;;;;;8.63;7.82;;;11.50;99.90;;;;;;5015054;28;20592;-73
2021/04/30 12:12:24;;;;;;;8.60;7.57;;;11.60;99.90;;;;;;4999989;28;20403;-73
2021/04/30 12:15:00;;;;;;;9.40;8.02;;;11.50;99.90;;;;;;5015942;28;20030;-73
2021/04/30 12:17:28;;;;;;;9.57;8.07;;;11.50;99.90;;;;;;4999572;28;20022;-74
2021/04/30 12:20:06;;;;;;;10.18;8.63;;;11.60;99.90;;;;;;5015555;28;20036;-73
2021/04/30 12:22:33;;;;;;;9.55;8.65;;;11.50;99.90;;;;;;5017587;28;20026;-73
2021/04/30 12:25:20;;;;;;;9.38;8.48;;;11.60;99.90;;;;;;5020774;28;20030;-72
2021/04/30 12:27:46;;;;;;;12.50;8.60;;;11.40;99.90;;;;;;5019861;28;20035;-73
2021/04/30 12:30:33;;;;;;;8.65;7.75;;;11.50;99.90;;;;;;5020896;28;20034;-74
2021/04/30 12:32:59;;;;;;;8.73;7.63;;;11.60;99.90;;;;;;4996954;28;20022;-74
2021/04/30 12:35:26;;;;;;;8.82;7.80;;;11.40;99.90;;;;;;4998863;28;20041;-75
2021/04/30 12:37:52;;;;;;;9.30;8.40;;;11.40;99.90;;;;;;5003648;28;20026;-75
2021/04/30 12:40:28;;;;;;;10.50;8.07;;;11.30;99.90;;;;;;5017075;28;20083;-74
2021/04/30 12:42:55;;;;;;;9.23;7.75;;;11.30;99.90;;;;;;5026490;28;20036;-73